sensor_id;sensor_type;location;lat;lon;timestamp;P1;durP1;ratioP1;P2;durP2;ratioP2
15748;SDS011;7976;52.526;13.326;2022-08-20T00:00:22;19.27;;;13.07;;
15748;SDS011;7976;52.526;13.326;2022-08-20T00:02:54;20.10;;;13.43;;
15748;SDS011;7976;52.526;13.326;2022-08-20T00:05:25;23.88;;;13.55;;
15748;SDS011;7976;52.526;13.326;2022-08-20T00:07:57;19.55;;;13.57;;
15748;SDS011;7976;52.526;13.326;2022-08-20T00:10:24;21.20;;;12.90;;
15748;SDS011;7976;52.526;13.326;2022-08-20T00:12:54;19.80;;;12.82;;
15748;SDS011;7976;52.526;13.326;2022-08-20T00:15:22;19.73;;;13.52;;
15748;SDS011;7976;52.526;13.326;2022-08-20T00:17:54;20.67;;;13.68;;
15748;SDS011;7976;52.526;13.326;2022-08-20T00:20:22;22.02;;;14.25;;
15748;SDS011;7976;52.526;13.326;2022-08-20T00:23:02;23.20;;;14.27;;
15748;SDS011;7976;52.526;13.326;2022-08-20T00:25:30;20.77;;;13.38;;
15748;SDS011;7976;52.526;13.326;2022-08-20T00:27:57;22.02;;;13.68;;
15748;SDS011;7976;52.526;13.326;2022-08-20T00:30:27;21.90;;;13.05;;
15748;SDS011;7976;52.526;13.326;2022-08-20T00:32:57;24.13;;;14.73;;
15748;SDS011;7976;52.526;13.326;2022-08-20T00:35:29;23.52;;;13.88;;
15748;SDS011;7976;52.526;13.326;2022-08-20T00:38:00;21.67;;;13.30;;
15748;SDS011;7976;52.526;13.326;2022-08-20T00:40:30;20.52;;;13.43;;
15748;SDS011;7976;52.526;13.326;2022-08-20T00:43:04;21.95;;;14.07;;
15748;SDS011;7976;52.526;13.326;2022-08-20T00:45:50;22.35;;;13.85;;
15748;SDS011;7976;52.526;13.326;2022-08-20T00:48:20;22.02;;;13.63;;
15748;SDS011;7976;52.526;13.326;2022-08-20T00:50:47;22.15;;;13.02;;
15748;SDS011;7976;52.526;13.326;2022-08-20T00:53:16;21.35;;;13.27;;
15748;SDS011;7976;52.526;13.326;2022-08-20T00:55:46;21.40;;;12.70;;
15748;SDS011;7976;52.526;13.326;2022-08-20T00:58:13;22.48;;;13.00;;
15748;SDS011;7976;52.526;13.326;2022-08-20T01:00:42;20.35;;;12.68;;
15748;SDS011;7976;52.526;13.326;2022-08-20T01:03:13;20.15;;;11.65;;
15748;SDS011;7976;52.526;13.326;2022-08-20T01:05:45;18.20;;;12.13;;
15748;SDS011;7976;52.526;13.326;2022-08-20T01:08:17;19.40;;;11.82;;
15748;SDS011;7976;52.526;13.326;2022-08-20T01:10:48;17.30;;;11.25;;
15748;SDS011;7976;52.526;13.326;2022-08-20T01:13:18;17.92;;;11.98;;
15748;SDS011;7976;52.526;13.326;2022-08-20T01:15:51;19.27;;;11.77;;
15748;SDS011;7976;52.526;13.326;2022-08-20T01:18:22;20.48;;;12.63;;
15748;SDS011;7976;52.526;13.326;2022-08-20T01:20:53;19.75;;;12.10;;
15748;SDS011;7976;52.526;13.326;2022-08-20T01:23:27;20.58;;;12.45;;
15748;SDS011;7976;52.526;13.326;2022-08-20T01:26:07;19.00;;;12.38;;
15748;SDS011;7976;52.526;13.326;2022-08-20T01:28:38;20.90;;;13.10;;
15748;SDS011;7976;52.526;13.326;2022-08-20T01:31:09;19.35;;;12.45;;
15748;SDS011;7976;52.526;13.326;2022-08-20T01:33:40;19.42;;;12.88;;
15748;SDS011;7976;52.526;13.326;2022-08-20T01:36:07;20.38;;;12.95;;
15748;SDS011;7976;52.526;13.326;2022-08-20T01:38:35;20.60;;;12.75;;
15748;SDS011;7976;52.526;13.326;2022-08-20T01:41:14;22.50;;;14.05;;
15748;SDS011;7976;52.526;13.326;2022-08-20T01:43:54;21.38;;;12.88;;
15748;SDS011;7976;52.526;13.326;2022-08-20T01:46:24;19.13;;;12.30;;
15748;SDS011;7976;52.526;13.326;2022-08-20T01:48:55;18.77;;;11.68;;
15748;SDS011;7976;52.526;13.326;2022-08-20T01:51:27;19.85;;;11.63;;
15748;SDS011;7976;52.526;13.326;2022-08-20T01:53:56;18.80;;;12.75;;
15748;SDS011;7976;52.526;13.326;2022-08-20T01:56:26;18.88;;;12.30;;
15748;SDS011;7976;52.526;13.326;2022-08-20T01:58:58;21.63;;;12.90;;
15748;SDS011;7976;52.526;13.326;2022-08-20T02:01:30;19.88;;;12.70;;
15748;SDS011;7976;52.526;13.326;2022-08-20T02:04:01;21.05;;;13.50;;
15748;SDS011;7976;52.526;13.326;2022-08-20T02:06:32;22.90;;;13.98;;
15748;SDS011;7976;52.526;13.326;2022-08-20T02:09:03;22.90;;;14.45;;
15748;SDS011;7976;52.526;13.326;2022-08-20T02:11:32;22.88;;;14.82;;
15748;SDS011;7976;52.526;13.326;2022-08-20T02:14:01;21.65;;;14.90;;
15748;SDS011;7976;52.526;13.326;2022-08-20T02:16:34;22.80;;;14.23;;
15748;SDS011;7976;52.526;13.326;2022-08-20T02:19:05;23.13;;;15.57;;
15748;SDS011;7976;52.526;13.326;2022-08-20T02:21:37;24.88;;;15.50;;
15748;SDS011;7976;52.526;13.326;2022-08-20T02:24:08;23.77;;;14.82;;
15748;SDS011;7976;52.526;13.326;2022-08-20T02:26:36;24.33;;;15.88;;
15748;SDS011;7976;52.526;13.326;2022-08-20T02:29:04;26.92;;;16.63;;
15748;SDS011;7976;52.526;13.326;2022-08-20T02:31:35;25.70;;;16.50;;
15748;SDS011;7976;52.526;13.326;2022-08-20T02:34:03;27.33;;;17.42;;
15748;SDS011;7976;52.526;13.326;2022-08-20T02:36:33;26.00;;;17.00;;
15748;SDS011;7976;52.526;13.326;2022-08-20T02:39:02;25.73;;;16.80;;
15748;SDS011;7976;52.526;13.326;2022-08-20T02:41:30;26.25;;;17.25;;
15748;SDS011;7976;52.526;13.326;2022-08-20T02:43:59;26.45;;;17.17;;
15748;SDS011;7976;52.526;13.326;2022-08-20T02:46:26;28.88;;;17.45;;
15748;SDS011;7976;52.526;13.326;2022-08-20T02:48:54;25.98;;;17.63;;
15748;SDS011;7976;52.526;13.326;2022-08-20T02:51:22;28.98;;;17.42;;
15748;SDS011;7976;52.526;13.326;2022-08-20T02:53:49;27.02;;;17.63;;
15748;SDS011;7976;52.526;13.326;2022-08-20T02:56:16;28.30;;;18.38;;
15748;SDS011;7976;52.526;13.326;2022-08-20T02:58:44;28.10;;;17.92;;
15748;SDS011;7976;52.526;13.326;2022-08-20T03:01:14;28.38;;;17.23;;
15748;SDS011;7976;52.526;13.326;2022-08-20T03:03:43;30.05;;;17.80;;
15748;SDS011;7976;52.526;13.326;2022-08-20T03:06:10;28.33;;;17.85;;
15748;SDS011;7976;52.526;13.326;2022-08-20T03:08:40;28.98;;;18.42;;
15748;SDS011;7976;52.526;13.326;2022-08-20T03:11:07;29.60;;;17.65;;
15748;SDS011;7976;52.526;13.326;2022-08-20T03:13:34;28.75;;;18.60;;
15748;SDS011;7976;52.526;13.326;2022-08-20T03:16:01;28.65;;;18.20;;
15748;SDS011;7976;52.526;13.326;2022-08-20T03:18:32;30.67;;;18.27;;
15748;SDS011;7976;52.526;13.326;2022-08-20T03:21:03;34.08;;;20.15;;
15748;SDS011;7976;52.526;13.326;2022-08-20T03:23:33;30.70;;;19.38;;
15748;SDS011;7976;52.526;13.326;2022-08-20T03:26:02;33.83;;;20.25;;
15748;SDS011;7976;52.526;13.326;2022-08-20T03:28:32;34.40;;;20.73;;
15748;SDS011;7976;52.526;13.326;2022-08-20T03:30:59;31.10;;;19.10;;
15748;SDS011;7976;52.526;13.326;2022-08-20T03:33:26;31.25;;;18.95;;
15748;SDS011;7976;52.526;13.326;2022-08-20T03:35:56;32.55;;;19.90;;
15748;SDS011;7976;52.526;13.326;2022-08-20T03:38:23;33.40;;;20.60;;
15748;SDS011;7976;52.526;13.326;2022-08-20T03:40:51;33.83;;;20.80;;
15748;SDS011;7976;52.526;13.326;2022-08-20T03:43:18;38.33;;;21.08;;
15748;SDS011;7976;52.526;13.326;2022-08-20T03:45:45;35.88;;;21.67;;
15748;SDS011;7976;52.526;13.326;2022-08-20T03:48:13;34.72;;;20.35;;
15748;SDS011;7976;52.526;13.326;2022-08-20T03:50:44;34.13;;;20.90;;
15748;SDS011;7976;52.526;13.326;2022-08-20T03:53:13;35.75;;;21.98;;
15748;SDS011;7976;52.526;13.326;2022-08-20T03:55:41;35.50;;;21.40;;
15748;SDS011;7976;52.526;13.326;2022-08-20T03:58:12;34.30;;;21.42;;
15748;SDS011;7976;52.526;13.326;2022-08-20T04:00:41;35.13;;;20.95;;
15748;SDS011;7976;52.526;13.326;2022-08-20T04:03:11;37.53;;;21.60;;
15748;SDS011;7976;52.526;13.326;2022-08-20T04:05:39;32.72;;;20.58;;
15748;SDS011;7976;52.526;13.326;2022-08-20T04:08:07;38.50;;;21.02;;
15748;SDS011;7976;52.526;13.326;2022-08-20T04:10:37;33.45;;;21.15;;
15748;SDS011;7976;52.526;13.326;2022-08-20T04:13:05;34.80;;;20.92;;
15748;SDS011;7976;52.526;13.326;2022-08-20T04:15:33;36.63;;;21.88;;
15748;SDS011;7976;52.526;13.326;2022-08-20T04:18:02;32.33;;;20.25;;
15748;SDS011;7976;52.526;13.326;2022-08-20T04:20:33;33.33;;;20.70;;
15748;SDS011;7976;52.526;13.326;2022-08-20T04:23:02;35.75;;;21.23;;
15748;SDS011;7976;52.526;13.326;2022-08-20T04:25:30;33.85;;;20.77;;
15748;SDS011;7976;52.526;13.326;2022-08-20T04:28:00;34.47;;;20.75;;
15748;SDS011;7976;52.526;13.326;2022-08-20T04:30:32;34.67;;;20.92;;
15748;SDS011;7976;52.526;13.326;2022-08-20T04:32:59;36.75;;;21.27;;
15748;SDS011;7976;52.526;13.326;2022-08-20T04:35:27;33.08;;;20.67;;
15748;SDS011;7976;52.526;13.326;2022-08-20T04:37:59;34.75;;;21.40;;
15748;SDS011;7976;52.526;13.326;2022-08-20T04:40:28;33.25;;;20.80;;
15748;SDS011;7976;52.526;13.326;2022-08-20T04:43:14;33.00;;;20.73;;
15748;SDS011;7976;52.526;13.326;2022-08-20T04:45:42;32.70;;;20.00;;
15748;SDS011;7976;52.526;13.326;2022-08-20T04:48:11;33.03;;;20.02;;
15748;SDS011;7976;52.526;13.326;2022-08-20T04:50:39;34.88;;;20.42;;
15748;SDS011;7976;52.526;13.326;2022-08-20T04:53:11;33.60;;;20.27;;
15748;SDS011;7976;52.526;13.326;2022-08-20T04:55:42;34.45;;;20.77;;
15748;SDS011;7976;52.526;13.326;2022-08-20T04:58:14;33.25;;;20.42;;
15748;SDS011;7976;52.526;13.326;2022-08-20T05:00:46;37.97;;;21.38;;
15748;SDS011;7976;52.526;13.326;2022-08-20T05:03:15;32.55;;;20.60;;
15748;SDS011;7976;52.526;13.326;2022-08-20T05:05:43;34.17;;;21.05;;
15748;SDS011;7976;52.526;13.326;2022-08-20T05:08:11;34.00;;;20.00;;
15748;SDS011;7976;52.526;13.326;2022-08-20T05:10:42;33.45;;;20.85;;
15748;SDS011;7976;52.526;13.326;2022-08-20T05:13:10;29.17;;;20.10;;
15748;SDS011;7976;52.526;13.326;2022-08-20T05:15:39;33.42;;;20.45;;
15748;SDS011;7976;52.526;13.326;2022-08-20T05:18:09;32.58;;;19.63;;
15748;SDS011;7976;52.526;13.326;2022-08-20T05:20:37;33.10;;;20.60;;
15748;SDS011;7976;52.526;13.326;2022-08-20T05:23:07;34.17;;;21.02;;
15748;SDS011;7976;52.526;13.326;2022-08-20T05:25:36;32.40;;;20.33;;
15748;SDS011;7976;52.526;13.326;2022-08-20T05:28:05;35.97;;;21.17;;
15748;SDS011;7976;52.526;13.326;2022-08-20T05:30:37;34.70;;;21.15;;
15748;SDS011;7976;52.526;13.326;2022-08-20T05:33:08;32.92;;;20.63;;
15748;SDS011;7976;52.526;13.326;2022-08-20T05:35:38;36.45;;;21.25;;
15748;SDS011;7976;52.526;13.326;2022-08-20T05:38:07;31.13;;;19.92;;
15748;SDS011;7976;52.526;13.326;2022-08-20T05:40:36;31.88;;;20.25;;
15748;SDS011;7976;52.526;13.326;2022-08-20T05:43:04;33.17;;;20.17;;
15748;SDS011;7976;52.526;13.326;2022-08-20T05:45:33;33.83;;;21.38;;
15748;SDS011;7976;52.526;13.326;2022-08-20T05:48:04;31.23;;;19.70;;
15748;SDS011;7976;52.526;13.326;2022-08-20T05:50:32;33.63;;;20.80;;
15748;SDS011;7976;52.526;13.326;2022-08-20T05:53:00;33.88;;;20.95;;
15748;SDS011;7976;52.526;13.326;2022-08-20T05:55:27;31.88;;;19.65;;
15748;SDS011;7976;52.526;13.326;2022-08-20T05:57:55;34.67;;;20.63;;
15748;SDS011;7976;52.526;13.326;2022-08-20T06:00:22;34.22;;;21.92;;
15748;SDS011;7976;52.526;13.326;2022-08-20T06:02:50;35.92;;;20.65;;
15748;SDS011;7976;52.526;13.326;2022-08-20T06:05:35;32.30;;;20.20;;
15748;SDS011;7976;52.526;13.326;2022-08-20T06:08:03;32.80;;;20.98;;
15748;SDS011;7976;52.526;13.326;2022-08-20T06:10:30;34.35;;;22.15;;
15748;SDS011;7976;52.526;13.326;2022-08-20T06:12:58;32.75;;;21.38;;
15748;SDS011;7976;52.526;13.326;2022-08-20T06:15:27;32.25;;;20.00;;
15748;SDS011;7976;52.526;13.326;2022-08-20T06:17:54;30.65;;;19.45;;
15748;SDS011;7976;52.526;13.326;2022-08-20T06:20:21;35.00;;;21.15;;
15748;SDS011;7976;52.526;13.326;2022-08-20T06:22:49;47.10;;;23.40;;
15748;SDS011;7976;52.526;13.326;2022-08-20T06:25:16;34.97;;;21.92;;
15748;SDS011;7976;52.526;13.326;2022-08-20T06:27:44;36.28;;;21.92;;
15748;SDS011;7976;52.526;13.326;2022-08-20T06:30:11;33.60;;;21.05;;
15748;SDS011;7976;52.526;13.326;2022-08-20T06:32:41;35.03;;;21.75;;
15748;SDS011;7976;52.526;13.326;2022-08-20T06:35:09;36.55;;;20.90;;
15748;SDS011;7976;52.526;13.326;2022-08-20T06:37:37;37.85;;;21.15;;
15748;SDS011;7976;52.526;13.326;2022-08-20T06:40:09;34.60;;;21.33;;
15748;SDS011;7976;52.526;13.326;2022-08-20T06:42:38;34.78;;;21.83;;
15748;SDS011;7976;52.526;13.326;2022-08-20T06:45:08;38.50;;;22.13;;
15748;SDS011;7976;52.526;13.326;2022-08-20T06:47:37;37.53;;;23.60;;
15748;SDS011;7976;52.526;13.326;2022-08-20T06:50:07;38.50;;;23.67;;
15748;SDS011;7976;52.526;13.326;2022-08-20T06:52:37;40.20;;;23.25;;
15748;SDS011;7976;52.526;13.326;2022-08-20T06:55:05;38.33;;;22.85;;
15748;SDS011;7976;52.526;13.326;2022-08-20T06:57:36;40.13;;;24.83;;
15748;SDS011;7976;52.526;13.326;2022-08-20T07:00:04;40.47;;;24.38;;
15748;SDS011;7976;52.526;13.326;2022-08-20T07:02:35;39.65;;;24.60;;
15748;SDS011;7976;52.526;13.326;2022-08-20T07:05:01;39.47;;;23.75;;
15748;SDS011;7976;52.526;13.326;2022-08-20T07:07:29;39.90;;;23.40;;
15748;SDS011;7976;52.526;13.326;2022-08-20T07:09:58;37.78;;;24.25;;
15748;SDS011;7976;52.526;13.326;2022-08-20T07:12:27;39.92;;;25.38;;
15748;SDS011;7976;52.526;13.326;2022-08-20T07:14:54;38.83;;;24.02;;
15748;SDS011;7976;52.526;13.326;2022-08-20T07:17:21;40.00;;;24.77;;
15748;SDS011;7976;52.526;13.326;2022-08-20T07:19:47;36.95;;;23.10;;
15748;SDS011;7976;52.526;13.326;2022-08-20T07:22:14;38.20;;;23.45;;
15748;SDS011;7976;52.526;13.326;2022-08-20T07:24:41;39.55;;;23.17;;
15748;SDS011;7976;52.526;13.326;2022-08-20T07:27:08;38.65;;;23.27;;
15748;SDS011;7976;52.526;13.326;2022-08-20T07:29:36;40.67;;;24.10;;
15748;SDS011;7976;52.526;13.326;2022-08-20T07:32:21;41.78;;;25.40;;
15748;SDS011;7976;52.526;13.326;2022-08-20T07:35:00;38.80;;;24.15;;
15748;SDS011;7976;52.526;13.326;2022-08-20T07:37:30;39.67;;;24.50;;
15748;SDS011;7976;52.526;13.326;2022-08-20T07:40:03;39.10;;;24.23;;
15748;SDS011;7976;52.526;13.326;2022-08-20T07:42:33;40.63;;;24.60;;
15748;SDS011;7976;52.526;13.326;2022-08-20T07:45:02;37.92;;;23.10;;
15748;SDS011;7976;52.526;13.326;2022-08-20T07:47:29;39.40;;;24.17;;
15748;SDS011;7976;52.526;13.326;2022-08-20T07:49:58;42.22;;;25.58;;
15748;SDS011;7976;52.526;13.326;2022-08-20T07:52:25;41.55;;;25.23;;
15748;SDS011;7976;52.526;13.326;2022-08-20T07:54:52;41.63;;;25.95;;
15748;SDS011;7976;52.526;13.326;2022-08-20T07:57:18;46.38;;;26.08;;
15748;SDS011;7976;52.526;13.326;2022-08-20T07:59:45;41.90;;;25.30;;
15748;SDS011;7976;52.526;13.326;2022-08-20T08:02:15;47.13;;;27.08;;
15748;SDS011;7976;52.526;13.326;2022-08-20T08:04:41;44.17;;;26.02;;
15748;SDS011;7976;52.526;13.326;2022-08-20T08:07:09;44.92;;;26.77;;
15748;SDS011;7976;52.526;13.326;2022-08-20T08:09:37;45.03;;;27.13;;
15748;SDS011;7976;52.526;13.326;2022-08-20T08:12:04;48.58;;;27.63;;
15748;SDS011;7976;52.526;13.326;2022-08-20T08:14:32;47.92;;;27.83;;
15748;SDS011;7976;52.526;13.326;2022-08-20T08:17:01;50.80;;;30.00;;
15748;SDS011;7976;52.526;13.326;2022-08-20T08:19:32;44.47;;;27.15;;
15748;SDS011;7976;52.526;13.326;2022-08-20T08:22:07;47.95;;;26.48;;
15748;SDS011;7976;52.526;13.326;2022-08-20T08:24:38;43.72;;;26.23;;
15748;SDS011;7976;52.526;13.326;2022-08-20T08:27:06;44.47;;;26.15;;
15748;SDS011;7976;52.526;13.326;2022-08-20T08:29:33;48.22;;;27.58;;
15748;SDS011;7976;52.526;13.326;2022-08-20T08:32:00;46.67;;;26.77;;
15748;SDS011;7976;52.526;13.326;2022-08-20T08:34:29;49.35;;;27.98;;
15748;SDS011;7976;52.526;13.326;2022-08-20T08:36:59;45.17;;;28.13;;
15748;SDS011;7976;52.526;13.326;2022-08-20T08:39:27;44.58;;;28.08;;
15748;SDS011;7976;52.526;13.326;2022-08-20T08:41:54;47.17;;;28.80;;
15748;SDS011;7976;52.526;13.326;2022-08-20T08:44:25;51.53;;;29.50;;
15748;SDS011;7976;52.526;13.326;2022-08-20T08:46:56;48.47;;;29.10;;
15748;SDS011;7976;52.526;13.326;2022-08-20T08:49:28;47.22;;;28.08;;
15748;SDS011;7976;52.526;13.326;2022-08-20T08:52:00;45.10;;;26.38;;
15748;SDS011;7976;52.526;13.326;2022-08-20T08:54:37;43.05;;;26.58;;
15748;SDS011;7976;52.526;13.326;2022-08-20T08:57:12;45.42;;;26.90;;
15748;SDS011;7976;52.526;13.326;2022-08-20T08:59:39;40.63;;;24.95;;
15748;SDS011;7976;52.526;13.326;2022-08-20T09:02:06;43.65;;;26.73;;
15748;SDS011;7976;52.526;13.326;2022-08-20T09:04:36;45.50;;;26.98;;
15748;SDS011;7976;52.526;13.326;2022-08-20T09:07:08;44.90;;;26.30;;
15748;SDS011;7976;52.526;13.326;2022-08-20T09:09:42;44.33;;;26.05;;
15748;SDS011;7976;52.526;13.326;2022-08-20T09:12:12;45.58;;;27.42;;
15748;SDS011;7976;52.526;13.326;2022-08-20T09:14:43;42.45;;;26.88;;
15748;SDS011;7976;52.526;13.326;2022-08-20T09:17:11;43.63;;;27.15;;
15748;SDS011;7976;52.526;13.326;2022-08-20T09:19:41;49.25;;;31.20;;
15748;SDS011;7976;52.526;13.326;2022-08-20T09:22:08;50.17;;;31.90;;
15748;SDS011;7976;52.526;13.326;2022-08-20T09:24:39;50.83;;;29.65;;
15748;SDS011;7976;52.526;13.326;2022-08-20T09:27:07;41.78;;;27.05;;
15748;SDS011;7976;52.526;13.326;2022-08-20T09:29:34;38.10;;;24.08;;
15748;SDS011;7976;52.526;13.326;2022-08-20T09:32:02;37.83;;;23.48;;
15748;SDS011;7976;52.526;13.326;2022-08-20T09:34:33;36.75;;;24.05;;
15748;SDS011;7976;52.526;13.326;2022-08-20T09:37:03;33.72;;;21.73;;
15748;SDS011;7976;52.526;13.326;2022-08-20T09:39:30;36.28;;;23.38;;
15748;SDS011;7976;52.526;13.326;2022-08-20T09:42:05;35.17;;;23.52;;
15748;SDS011;7976;52.526;13.326;2022-08-20T09:44:33;37.33;;;23.92;;
15748;SDS011;7976;52.526;13.326;2022-08-20T09:47:00;32.67;;;21.90;;
15748;SDS011;7976;52.526;13.326;2022-08-20T09:49:28;32.45;;;21.23;;
15748;SDS011;7976;52.526;13.326;2022-08-20T09:51:55;31.50;;;20.45;;
15748;SDS011;7976;52.526;13.326;2022-08-20T09:54:26;35.53;;;24.35;;
15748;SDS011;7976;52.526;13.326;2022-08-20T09:56:54;34.78;;;23.20;;
15748;SDS011;7976;52.526;13.326;2022-08-20T09:59:23;42.28;;;26.50;;
15748;SDS011;7976;52.526;13.326;2022-08-20T10:01:50;34.65;;;22.08;;
15748;SDS011;7976;52.526;13.326;2022-08-20T10:04:17;30.35;;;19.77;;
15748;SDS011;7976;52.526;13.326;2022-08-20T10:06:44;29.17;;;19.38;;
15748;SDS011;7976;52.526;13.326;2022-08-20T10:09:11;36.90;;;23.95;;
15748;SDS011;7976;52.526;13.326;2022-08-20T10:11:39;33.75;;;22.02;;
15748;SDS011;7976;52.526;13.326;2022-08-20T10:14:06;36.75;;;24.88;;
15748;SDS011;7976;52.526;13.326;2022-08-20T10:16:34;32.40;;;21.10;;
15748;SDS011;7976;52.526;13.326;2022-08-20T10:19:01;29.92;;;18.85;;
15748;SDS011;7976;52.526;13.326;2022-08-20T10:21:29;26.02;;;17.13;;
15748;SDS011;7976;52.526;13.326;2022-08-20T10:23:58;27.23;;;17.33;;
15748;SDS011;7976;52.526;13.326;2022-08-20T10:26:25;27.48;;;16.55;;
15748;SDS011;7976;52.526;13.326;2022-08-20T10:28:53;25.05;;;16.30;;
15748;SDS011;7976;52.526;13.326;2022-08-20T10:31:20;25.55;;;16.00;;
15748;SDS011;7976;52.526;13.326;2022-08-20T10:33:47;27.92;;;17.23;;
15748;SDS011;7976;52.526;13.326;2022-08-20T10:36:15;24.92;;;15.95;;
15748;SDS011;7976;52.526;13.326;2022-08-20T10:38:43;26.27;;;16.92;;
15748;SDS011;7976;52.526;13.326;2022-08-20T10:41:10;24.95;;;15.30;;
15748;SDS011;7976;52.526;13.326;2022-08-20T10:43:37;24.23;;;15.27;;
15748;SDS011;7976;52.526;13.326;2022-08-20T10:46:05;21.98;;;13.98;;
15748;SDS011;7976;52.526;13.326;2022-08-20T10:48:33;21.40;;;12.75;;
15748;SDS011;7976;52.526;13.326;2022-08-20T10:51:00;21.42;;;13.52;;
15748;SDS011;7976;52.526;13.326;2022-08-20T10:53:27;18.83;;;11.75;;
15748;SDS011;7976;52.526;13.326;2022-08-20T10:55:54;28.50;;;19.17;;
15748;SDS011;7976;52.526;13.326;2022-08-20T10:58:22;23.15;;;14.18;;
15748;SDS011;7976;52.526;13.326;2022-08-20T11:00:49;18.23;;;11.98;;
15748;SDS011;7976;52.526;13.326;2022-08-20T11:03:19;20.05;;;11.93;;
15748;SDS011;7976;52.526;13.326;2022-08-20T11:05:46;18.92;;;11.07;;
15748;SDS011;7976;52.526;13.326;2022-08-20T11:08:13;21.17;;;11.55;;
15748;SDS011;7976;52.526;13.326;2022-08-20T11:10:40;18.52;;;11.25;;
15748;SDS011;7976;52.526;13.326;2022-08-20T11:13:07;16.55;;;9.80;;
15748;SDS011;7976;52.526;13.326;2022-08-20T11:15:37;20.23;;;12.15;;
15748;SDS011;7976;52.526;13.326;2022-08-20T11:18:07;20.60;;;10.40;;
15748;SDS011;7976;52.526;13.326;2022-08-20T11:20:37;17.15;;;9.73;;
15748;SDS011;7976;52.526;13.326;2022-08-20T11:23:04;18.27;;;10.77;;
15748;SDS011;7976;52.526;13.326;2022-08-20T11:25:31;18.08;;;11.57;;
15748;SDS011;7976;52.526;13.326;2022-08-20T11:27:58;20.58;;;11.57;;
15748;SDS011;7976;52.526;13.326;2022-08-20T11:30:26;18.48;;;11.52;;
15748;SDS011;7976;52.526;13.326;2022-08-20T11:32:55;24.67;;;16.25;;
15748;SDS011;7976;52.526;13.326;2022-08-20T11:35:24;16.95;;;11.05;;
15748;SDS011;7976;52.526;13.326;2022-08-20T11:40:58;19.02;;;12.50;;
15748;SDS011;7976;52.526;13.326;2022-08-20T11:43:25;22.15;;;13.15;;
15748;SDS011;7976;52.526;13.326;2022-08-20T11:45:53;21.05;;;12.98;;
15748;SDS011;7976;52.526;13.326;2022-08-20T11:48:21;37.17;;;24.95;;
15748;SDS011;7976;52.526;13.326;2022-08-20T11:50:48;17.58;;;10.85;;
15748;SDS011;7976;52.526;13.326;2022-08-20T11:53:17;17.05;;;10.25;;
15748;SDS011;7976;52.526;13.326;2022-08-20T11:55:44;15.57;;;9.98;;
15748;SDS011;7976;52.526;13.326;2022-08-20T11:58:12;13.75;;;8.05;;
15748;SDS011;7976;52.526;13.326;2022-08-20T12:00:42;16.15;;;10.43;;
15748;SDS011;7976;52.526;13.326;2022-08-20T12:03:10;48.90;;;32.33;;
15748;SDS011;7976;52.526;13.326;2022-08-20T12:05:38;13.65;;;8.45;;
15748;SDS011;7976;52.526;13.326;2022-08-20T12:08:08;14.18;;;8.02;;
15748;SDS011;7976;52.526;13.326;2022-08-20T12:10:37;12.15;;;6.97;;
15748;SDS011;7976;52.526;13.326;2022-08-20T12:13:04;13.32;;;6.50;;
15748;SDS011;7976;52.526;13.326;2022-08-20T12:15:32;13.70;;;6.40;;
15748;SDS011;7976;52.526;13.326;2022-08-20T12:17:59;12.73;;;6.15;;
15748;SDS011;7976;52.526;13.326;2022-08-20T12:20:29;11.55;;;5.70;;
15748;SDS011;7976;52.526;13.326;2022-08-20T12:22:56;9.70;;;5.22;;
15748;SDS011;7976;52.526;13.326;2022-08-20T12:25:23;10.77;;;5.43;;
15748;SDS011;7976;52.526;13.326;2022-08-20T12:27:53;10.75;;;5.78;;
15748;SDS011;7976;52.526;13.326;2022-08-20T12:30:21;10.88;;;5.53;;
15748;SDS011;7976;52.526;13.326;2022-08-20T12:32:49;10.30;;;5.63;;
15748;SDS011;7976;52.526;13.326;2022-08-20T12:35:17;11.93;;;6.07;;
15748;SDS011;7976;52.526;13.326;2022-08-20T12:37:45;10.73;;;6.10;;
15748;SDS011;7976;52.526;13.326;2022-08-20T12:40:14;10.32;;;5.68;;
15748;SDS011;7976;52.526;13.326;2022-08-20T12:42:45;10.50;;;5.78;;
15748;SDS011;7976;52.526;13.326;2022-08-20T12:45:14;12.85;;;7.68;;
15748;SDS011;7976;52.526;13.326;2022-08-20T12:47:48;13.93;;;6.75;;
15748;SDS011;7976;52.526;13.326;2022-08-20T12:50:16;18.95;;;10.40;;
15748;SDS011;7976;52.526;13.326;2022-08-20T12:52:47;12.02;;;6.43;;
15748;SDS011;7976;52.526;13.326;2022-08-20T12:55:15;18.45;;;11.70;;
15748;SDS011;7976;52.526;13.326;2022-08-20T12:57:45;12.20;;;6.80;;
15748;SDS011;7976;52.526;13.326;2022-08-20T13:00:16;16.90;;;9.48;;
15748;SDS011;7976;52.526;13.326;2022-08-20T13:02:48;22.98;;;14.60;;
15748;SDS011;7976;52.526;13.326;2022-08-20T13:05:15;17.25;;;11.10;;
15748;SDS011;7976;52.526;13.326;2022-08-20T13:07:43;16.77;;;10.43;;
15748;SDS011;7976;52.526;13.326;2022-08-20T13:10:13;11.85;;;7.32;;
15748;SDS011;7976;52.526;13.326;2022-08-20T13:12:44;14.40;;;7.53;;
15748;SDS011;7976;52.526;13.326;2022-08-20T13:15:12;13.82;;;7.75;;
15748;SDS011;7976;52.526;13.326;2022-08-20T13:17:40;13.55;;;8.45;;
15748;SDS011;7976;52.526;13.326;2022-08-20T13:20:09;14.05;;;6.50;;
15748;SDS011;7976;52.526;13.326;2022-08-20T13:22:40;15.10;;;8.15;;
15748;SDS011;7976;52.526;13.326;2022-08-20T13:25:09;13.95;;;9.10;;
15748;SDS011;7976;52.526;13.326;2022-08-20T13:27:39;17.15;;;11.27;;
15748;SDS011;7976;52.526;13.326;2022-08-20T13:30:09;17.52;;;9.57;;
15748;SDS011;7976;52.526;13.326;2022-08-20T13:32:41;17.80;;;10.18;;
15748;SDS011;7976;52.526;13.326;2022-08-20T13:35:08;14.55;;;8.73;;
15748;SDS011;7976;52.526;13.326;2022-08-20T13:37:37;16.25;;;8.43;;
15748;SDS011;7976;52.526;13.326;2022-08-20T13:40:05;14.57;;;7.70;;
15748;SDS011;7976;52.526;13.326;2022-08-20T13:42:34;13.60;;;8.20;;
15748;SDS011;7976;52.526;13.326;2022-08-20T13:45:02;16.23;;;9.00;;
15748;SDS011;7976;52.526;13.326;2022-08-20T13:47:32;15.00;;;8.65;;
15748;SDS011;7976;52.526;13.326;2022-08-20T13:50:04;16.50;;;8.68;;
15748;SDS011;7976;52.526;13.326;2022-08-20T13:52:34;14.40;;;8.00;;
15748;SDS011;7976;52.526;13.326;2022-08-20T13:55:02;13.82;;;8.60;;
15748;SDS011;7976;52.526;13.326;2022-08-20T13:57:32;16.65;;;9.40;;
15748;SDS011;7976;52.526;13.326;2022-08-20T13:59:59;16.45;;;9.05;;
15748;SDS011;7976;52.526;13.326;2022-08-20T14:02:29;12.93;;;7.88;;
15748;SDS011;7976;52.526;13.326;2022-08-20T14:04:56;15.63;;;9.13;;
15748;SDS011;7976;52.526;13.326;2022-08-20T14:07:25;16.15;;;9.25;;
15748;SDS011;7976;52.526;13.326;2022-08-20T14:09:55;15.50;;;9.15;;
15748;SDS011;7976;52.526;13.326;2022-08-20T14:12:24;19.35;;;11.85;;
15748;SDS011;7976;52.526;13.326;2022-08-20T14:14:53;17.92;;;10.95;;
15748;SDS011;7976;52.526;13.326;2022-08-20T14:17:22;25.33;;;17.15;;
15748;SDS011;7976;52.526;13.326;2022-08-20T14:19:52;24.60;;;14.45;;
15748;SDS011;7976;52.526;13.326;2022-08-20T14:22:23;23.55;;;15.50;;
15748;SDS011;7976;52.526;13.326;2022-08-20T14:24:50;23.30;;;14.55;;
15748;SDS011;7976;52.526;13.326;2022-08-20T14:27:19;21.65;;;14.23;;
15748;SDS011;7976;52.526;13.326;2022-08-20T14:29:48;21.60;;;13.13;;
15748;SDS011;7976;52.526;13.326;2022-08-20T14:32:16;21.33;;;12.15;;
15748;SDS011;7976;52.526;13.326;2022-08-20T14:34:44;20.60;;;12.25;;
15748;SDS011;7976;52.526;13.326;2022-08-20T14:37:12;22.33;;;12.60;;